createdAt,value
2023-05-11T00:02:11.390Z,13.27
2023-05-11T00:04:39.898Z,12.47
2023-05-11T00:07:08.385Z,12.70
2023-05-11T00:09:38.482Z,12.17
2023-05-11T00:12:08.868Z,12.17
2023-05-11T00:14:37.338Z,12.20
2023-05-11T00:17:06.097Z,10.90
2023-05-11T00:19:34.570Z,12.13
2023-05-11T00:22:02.978Z,12.33
2023-05-11T00:24:31.609Z,11.70
2023-05-11T00:27:00.056Z,11.07
2023-05-11T00:29:29.831Z,11.23
2023-05-11T00:31:58.334Z,10.90
2023-05-11T00:34:26.770Z,11.33
2023-05-11T00:36:55.180Z,10.90
2023-05-11T00:39:23.625Z,10.27
2023-05-11T00:41:52.199Z,10.13
2023-05-11T00:44:20.633Z,10.10
2023-05-11T00:46:51.170Z,10.27
2023-05-11T00:49:21.562Z,10.10
2023-05-11T00:51:50.038Z,9.50
2023-05-11T00:54:18.485Z,9.40
2023-05-11T00:56:48.315Z,9.40
2023-05-11T00:59:16.973Z,8.73
2023-05-11T01:01:45.692Z,9.90
2023-05-11T01:04:15.672Z,9.97
2023-05-11T01:06:49.821Z,9.93
2023-05-11T01:09:26.485Z,9.80
2023-05-11T01:11:58.899Z,9.90
2023-05-11T01:14:29.612Z,9.30
2023-05-11T01:17:01.239Z,9.57
2023-05-11T01:19:40.388Z,9.57
2023-05-11T01:22:12.144Z,9.13
2023-05-11T01:24:50.677Z,9.33
2023-05-11T01:27:25.295Z,8.77
2023-05-11T01:30:08.465Z,9.67
2023-05-11T01:32:41.392Z,9.23
2023-05-11T01:35:11.171Z,8.77
2023-05-11T01:37:41.348Z,9.20
2023-05-11T01:40:14.123Z,8.83
2023-05-11T01:42:45.168Z,8.43
2023-05-11T01:45:14.914Z,8.73
2023-05-11T01:47:45.813Z,8.23
2023-05-11T01:50:15.055Z,8.77
2023-05-11T01:52:46.070Z,8.40
2023-05-11T01:55:15.676Z,8.70
2023-05-11T01:57:44.169Z,8.57
2023-05-11T02:00:13.144Z,7.50
2023-05-11T02:02:41.999Z,7.83
2023-05-11T02:05:12.804Z,8.30
2023-05-11T02:07:44.910Z,8.17
2023-05-11T02:10:13.996Z,7.43
2023-05-11T02:12:42.840Z,7.30
2023-05-11T02:15:12.520Z,8.33
2023-05-11T02:17:41.455Z,6.87
2023-05-11T02:20:11.225Z,7.00
2023-05-11T02:22:42.314Z,6.43
2023-05-11T02:25:11.607Z,6.93
2023-05-11T02:27:40.071Z,6.87
2023-05-11T02:30:09.331Z,6.80
2023-05-11T02:32:39.301Z,6.43
2023-05-11T02:35:09.267Z,6.20
2023-05-11T02:37:41.636Z,6.27
2023-05-11T02:40:15.238Z,5.67
2023-05-11T02:42:44.617Z,5.70
2023-05-11T02:45:14.000Z,5.20
2023-05-11T02:47:45.530Z,5.50
2023-05-11T02:50:14.498Z,5.10
2023-05-11T02:52:44.778Z,4.77
2023-05-11T02:55:15.336Z,5.20
2023-05-11T02:57:44.463Z,5.03
2023-05-11T03:00:13.554Z,5.13
2023-05-11T03:02:42.373Z,4.83
2023-05-11T03:05:11.120Z,4.87
2023-05-11T03:07:39.661Z,4.93
2023-05-11T03:10:09.389Z,4.30
2023-05-11T03:12:39.360Z,4.40
2023-05-11T03:15:08.800Z,5.03
2023-05-11T03:17:37.750Z,5.10
2023-05-11T03:20:06.749Z,4.80
2023-05-11T03:22:35.370Z,4.50
2023-05-11T03:25:04.761Z,4.50
2023-05-11T03:27:33.840Z,4.00
2023-05-11T03:30:04.891Z,4.07
2023-05-11T03:32:33.328Z,4.43
2023-05-11T03:35:01.768Z,4.47
2023-05-11T03:37:31.667Z,3.77
2023-05-11T03:40:01.571Z,4.10
2023-05-11T03:42:30.916Z,4.03
2023-05-11T03:44:59.987Z,4.50
2023-05-11T03:47:30.361Z,4.40
2023-05-11T03:49:59.569Z,4.37
2023-05-11T03:52:28.629Z,4.53
2023-05-11T03:54:57.079Z,4.20
2023-05-11T03:57:27.015Z,4.37
2023-05-11T03:59:55.469Z,4.13
2023-05-11T04:02:24.616Z,4.50
2023-05-11T04:04:54.681Z,4.27
2023-05-11T04:07:23.167Z,3.93
2023-05-11T04:09:51.627Z,3.90
2023-05-11T04:12:20.045Z,4.03
2023-05-11T04:14:48.428Z,4.00
2023-05-11T04:17:16.860Z,3.77
2023-05-11T04:19:45.258Z,3.67
2023-05-11T04:22:15.088Z,3.83
2023-05-11T04:24:43.546Z,3.93
2023-05-11T04:27:11.956Z,3.90
2023-05-11T04:29:40.343Z,3.53
2023-05-11T04:32:08.798Z,3.60
2023-05-11T04:34:37.246Z,3.90
2023-05-11T04:37:07.441Z,4.03
2023-05-11T04:39:37.308Z,4.20
2023-05-11T04:42:06.086Z,4.10
2023-05-11T04:44:34.491Z,3.90
2023-05-11T04:47:02.964Z,3.80
2023-05-11T04:49:31.425Z,4.40
2023-05-11T04:51:59.878Z,4.17
2023-05-11T04:54:28.350Z,4.70
2023-05-11T04:56:58.450Z,4.07
2023-05-11T04:59:26.864Z,4.53
2023-05-11T05:01:55.322Z,4.00
2023-05-11T05:04:23.723Z,4.03
2023-05-11T05:06:52.122Z,4.20
2023-05-11T05:09:20.701Z,4.03
2023-05-11T05:11:49.088Z,3.80
2023-05-11T05:14:18.907Z,3.90
2023-05-11T05:16:47.364Z,4.00
2023-05-11T05:19:16.045Z,3.83
2023-05-11T05:21:44.439Z,3.33
2023-05-11T05:24:12.888Z,3.50
2023-05-11T05:26:41.319Z,3.23
2023-05-11T05:29:09.839Z,3.47
2023-05-11T05:31:39.627Z,3.70
2023-05-11T05:34:08.041Z,3.50
2023-05-11T05:36:36.479Z,3.67
2023-05-11T05:39:08.965Z,3.60
2023-05-11T05:41:38.482Z,3.57
2023-05-11T05:44:07.184Z,3.70
2023-05-11T05:46:35.655Z,3.43
2023-05-11T05:49:05.490Z,3.73
2023-05-11T05:51:33.912Z,3.70
2023-05-11T05:54:02.348Z,3.90
2023-05-11T05:56:31.999Z,4.10
2023-05-11T05:59:00.468Z,4.10
2023-05-11T06:01:29.041Z,4.10
2023-05-11T06:03:57.930Z,4.20
2023-05-11T06:06:28.030Z,4.43
2023-05-11T06:08:56.460Z,4.30
2023-05-11T06:11:24.895Z,4.47
2023-05-11T06:13:53.272Z,4.70
2023-05-11T06:16:21.867Z,4.50
2023-05-11T06:18:50.811Z,4.40
2023-05-11T06:21:19.244Z,4.20
2023-05-11T06:23:49.068Z,4.57
2023-05-11T06:26:17.491Z,4.30
2023-05-11T06:28:45.974Z,4.30
2023-05-11T06:31:15.144Z,4.27
2023-05-11T06:33:43.587Z,4.10
2023-05-11T06:36:12.199Z,4.10
2023-05-11T06:38:40.629Z,3.80
2023-05-11T06:41:11.544Z,4.07
2023-05-11T06:43:40.166Z,4.77
2023-05-11T06:46:08.629Z,4.97
2023-05-11T06:48:37.119Z,5.33
2023-05-11T06:51:05.592Z,5.70
2023-05-11T06:53:34.034Z,6.30
2023-05-11T06:56:03.456Z,5.60
2023-05-11T06:58:33.273Z,5.87
2023-05-11T07:01:02.410Z,6.20
2023-05-11T07:03:30.911Z,5.13
2023-05-11T07:05:59.321Z,4.93
2023-05-11T07:08:27.934Z,4.10
2023-05-11T07:10:56.385Z,4.27
2023-05-11T07:13:24.848Z,5.30
2023-05-11T07:15:57.244Z,5.40
2023-05-11T07:18:26.085Z,4.80
2023-05-11T07:20:54.554Z,5.17
2023-05-11T07:23:23.059Z,4.60
2023-05-11T07:25:51.777Z,5.13
2023-05-11T07:28:20.176Z,4.50
2023-05-11T07:30:49.124Z,4.83
2023-05-11T07:33:18.970Z,5.00
2023-05-11T07:35:47.380Z,4.93
2023-05-11T07:38:15.848Z,5.20
2023-05-11T07:40:44.284Z,5.00
2023-05-11T07:43:12.904Z,5.07
2023-05-11T07:45:41.533Z,5.33
2023-05-11T07:48:10.009Z,5.53
2023-05-11T07:50:40.531Z,5.67
2023-05-11T07:53:09.153Z,5.17
2023-05-11T07:55:37.572Z,5.80
2023-05-11T07:58:06.008Z,5.83
2023-05-11T08:00:34.573Z,6.13
2023-05-11T08:03:03.398Z,5.87
2023-05-11T08:05:35.987Z,5.80
2023-05-11T08:08:05.950Z,5.37
2023-05-11T08:10:34.405Z,5.77
2023-05-11T08:13:02.836Z,5.40
2023-05-11T08:15:31.682Z,5.40
2023-05-11T08:18:00.469Z,5.50
2023-05-11T08:20:29.457Z,5.53
2023-05-11T08:22:57.862Z,5.80
2023-05-11T08:25:27.865Z,5.17
2023-05-11T08:27:56.395Z,5.23
2023-05-11T08:30:24.800Z,5.30
2023-05-11T08:32:58.729Z,5.07
2023-05-11T08:35:27.884Z,5.13
2023-05-11T08:37:56.396Z,4.53
2023-05-11T08:40:25.700Z,5.10
2023-05-11T08:42:57.948Z,4.33
2023-05-11T08:45:27.766Z,4.20
2023-05-11T08:47:56.766Z,4.40
2023-05-11T08:50:25.503Z,4.17
2023-05-11T08:52:54.174Z,4.20
2023-05-11T08:55:23.650Z,3.97
2023-05-11T08:57:53.322Z,3.90
2023-05-11T09:00:24.340Z,3.90
2023-05-11T09:02:53.608Z,3.50
2023-05-11T09:05:22.795Z,3.63
2023-05-11T09:07:53.437Z,4.00
2023-05-11T09:10:22.396Z,4.00
2023-05-11T09:12:50.863Z,4.40
2023-05-11T09:15:19.492Z,4.20
2023-05-11T09:17:49.537Z,4.30
2023-05-11T09:20:18.224Z,3.93
2023-05-11T09:22:48.127Z,4.03
2023-05-11T09:25:18.091Z,3.83
2023-05-11T09:27:47.671Z,4.30
2023-05-11T09:32:51.552Z,4.10
2023-05-11T09:35:23.331Z,3.63
2023-05-11T09:38:02.715Z,4.20
2023-05-11T09:40:34.311Z,3.87
2023-05-11T09:43:03.682Z,3.90
2023-05-11T09:45:39.299Z,4.20
2023-05-11T09:48:16.200Z,4.20
2023-05-11T09:50:45.102Z,4.50
2023-05-11T09:53:13.649Z,4.53
2023-05-11T09:55:52.485Z,3.80
2023-05-11T09:58:20.916Z,3.43
2023-05-11T10:00:52.354Z,3.93
2023-05-11T10:03:22.595Z,4.33
2023-05-11T10:05:58.581Z,3.73
2023-05-11T10:08:30.356Z,3.93
2023-05-11T10:10:59.034Z,4.27
2023-05-11T10:13:27.628Z,3.70
2023-05-11T10:15:56.567Z,3.73
2023-05-11T10:18:26.849Z,4.10
2023-05-11T10:20:55.849Z,3.40
2023-05-11T10:23:24.320Z,3.20
2023-05-11T10:25:53.574Z,3.50
2023-05-11T10:28:22.326Z,3.20
2023-05-11T10:30:51.100Z,2.60
2023-05-11T10:33:19.800Z,2.90
2023-05-11T10:35:52.644Z,2.80
2023-05-11T10:38:23.438Z,2.80
2023-05-11T10:40:53.679Z,2.60
2023-05-11T10:43:34.638Z,2.60
2023-05-11T10:46:09.494Z,2.50
2023-05-11T10:48:52.798Z,2.40
2023-05-11T10:51:39.261Z,2.90
2023-05-11T10:54:12.549Z,2.30
2023-05-11T10:56:48.882Z,2.40
2023-05-11T10:59:51.300Z,2.30
2023-05-11T11:02:20.308Z,2.53
2023-05-11T11:04:49.606Z,2.70
2023-05-11T11:07:19.599Z,2.83
2023-05-11T11:09:57.320Z,2.60
2023-05-11T11:12:27.443Z,2.50
2023-05-11T11:14:57.043Z,2.70
2023-05-11T11:17:27.452Z,2.07
2023-05-11T11:19:56.068Z,2.23
2023-05-11T11:22:42.900Z,2.25
2023-05-11T11:25:13.076Z,2.40
2023-05-11T11:27:57.179Z,2.57
2023-05-11T11:30:26.405Z,2.30
2023-05-11T11:32:55.462Z,2.40
2023-05-11T11:35:42.832Z,3.30
2023-05-11T11:38:12.500Z,4.45
2023-05-11T11:43:17.623Z,5.35
2023-05-11T11:45:52.518Z,4.35
2023-05-11T11:48:25.436Z,4.05
2023-05-11T11:51:04.212Z,3.90
2023-05-11T11:54:06.808Z,3.70
2023-05-11T11:56:46.732Z,3.30
2023-05-11T11:59:18.341Z,3.75
2023-05-11T12:01:47.052Z,3.80
2023-05-11T12:04:31.473Z,3.75
2023-05-11T12:07:00.550Z,3.08
2023-05-11T12:09:29.024Z,2.75
2023-05-11T12:11:59.059Z,2.90
2023-05-11T12:14:28.148Z,2.70
2023-05-11T12:17:08.326Z,2.60
2023-05-11T12:19:36.785Z,2.60
2023-05-11T12:22:05.240Z,2.60
2023-05-11T12:24:33.712Z,2.20
2023-05-11T12:27:06.047Z,2.20
2023-05-11T12:29:34.682Z,2.10
2023-05-11T12:32:03.214Z,2.13
2023-05-11T12:34:31.692Z,3.67
2023-05-11T12:37:01.603Z,5.33
2023-05-11T12:39:30.461Z,3.72
2023-05-11T12:42:00.223Z,2.45
2023-05-11T12:44:30.218Z,2.90
2023-05-11T12:46:58.706Z,2.35
2023-05-11T12:49:27.709Z,2.40
2023-05-11T12:52:02.958Z,2.05
2023-05-11T12:54:32.960Z,2.40
2023-05-11T12:57:01.803Z,1.80
2023-05-11T12:59:33.004Z,2.00
2023-05-11T13:02:11.517Z,1.85
2023-05-11T13:04:40.524Z,1.80
2023-05-11T13:07:09.122Z,1.90
2023-05-11T13:09:37.564Z,1.83
2023-05-11T13:12:13.475Z,1.80
2023-05-11T13:14:43.400Z,1.57
2023-05-11T13:17:12.099Z,1.60
2023-05-11T13:19:40.834Z,1.60
2023-05-11T13:22:12.569Z,1.90
2023-05-11T13:24:41.006Z,1.93
2023-05-11T13:27:09.435Z,1.47
2023-05-11T13:29:37.929Z,1.50
2023-05-11T13:32:08.444Z,1.50
2023-05-11T13:34:37.374Z,1.65
2023-05-11T13:37:06.233Z,1.50
2023-05-11T13:39:34.685Z,1.47
2023-05-11T13:42:03.344Z,1.60
2023-05-11T13:44:31.795Z,1.80
2023-05-11T13:47:00.351Z,1.37
2023-05-11T13:49:30.879Z,1.47
2023-05-11T13:52:00.467Z,1.77
2023-05-11T13:54:28.940Z,1.90
2023-05-11T13:56:57.375Z,2.10
2023-05-11T13:59:26.021Z,2.40
2023-05-11T14:01:54.506Z,2.60
2023-05-11T14:04:23.032Z,2.87
2023-05-11T14:06:52.879Z,2.73
2023-05-11T14:09:23.175Z,3.37
2023-05-11T14:11:51.715Z,2.87
2023-05-11T14:14:20.102Z,2.70
2023-05-11T14:16:48.570Z,2.87
2023-05-11T14:19:17.210Z,2.53
2023-05-11T14:21:45.723Z,2.20
2023-05-11T14:24:15.543Z,2.40
2023-05-11T14:26:43.959Z,2.20
2023-05-11T14:29:12.563Z,2.10
2023-05-11T14:31:41.638Z,2.10
2023-05-11T14:34:10.068Z,1.80
2023-05-11T14:36:38.691Z,2.10
2023-05-11T14:39:07.337Z,1.87
2023-05-11T14:41:37.119Z,2.00
2023-05-11T14:44:05.568Z,2.10
2023-05-11T14:46:34.079Z,1.80
2023-05-11T14:49:02.657Z,2.10
2023-05-11T14:51:31.816Z,2.00
2023-05-11T14:54:00.335Z,2.10
2023-05-11T14:56:28.790Z,1.93
2023-05-11T14:58:59.223Z,2.10
2023-05-11T15:01:27.669Z,2.10
2023-05-11T15:03:56.410Z,1.90
2023-05-11T15:06:24.848Z,2.03
2023-05-11T15:08:53.321Z,2.30
2023-05-11T15:11:21.777Z,2.00
2023-05-11T15:13:50.230Z,2.17
2023-05-11T15:16:20.014Z,2.00
2023-05-11T15:18:48.502Z,2.20
2023-05-11T15:21:16.933Z,2.10
2023-05-11T15:23:45.750Z,2.07
2023-05-11T15:26:14.597Z,2.00
2023-05-11T15:28:43.015Z,2.05
2023-05-11T15:31:11.517Z,1.90
2023-05-11T15:33:41.512Z,1.90
2023-05-11T15:36:13.569Z,1.97
2023-05-11T15:38:42.151Z,1.90
2023-05-11T15:41:10.847Z,1.80
2023-05-11T15:43:39.283Z,1.83
2023-05-11T15:46:07.813Z,1.90
2023-05-11T15:48:36.555Z,2.10
2023-05-11T15:51:06.406Z,1.97
2023-05-11T15:53:34.823Z,2.17
2023-05-11T15:56:03.222Z,2.00
2023-05-11T15:58:31.808Z,1.80
2023-05-11T16:01:00.894Z,1.85
2023-05-11T16:03:29.913Z,1.70
2023-05-11T16:05:58.399Z,1.75
2023-05-11T16:08:28.561Z,1.58
2023-05-11T16:10:57.250Z,1.80
2023-05-11T16:13:25.854Z,2.10
2023-05-11T16:15:54.249Z,1.90
2023-05-11T16:18:22.718Z,1.85
2023-05-11T16:20:51.504Z,1.90
2023-05-11T16:23:20.509Z,1.73
2023-05-11T16:25:51.115Z,2.00
2023-05-11T16:28:19.742Z,2.10
2023-05-11T16:30:48.172Z,2.03
2023-05-11T16:33:16.871Z,1.90
2023-05-11T16:35:45.333Z,1.67
2023-05-11T16:38:18.050Z,1.80
2023-05-11T16:40:46.557Z,1.80
2023-05-11T16:43:16.723Z,1.75
2023-05-11T16:45:46.240Z,1.98
2023-05-11T16:48:14.673Z,1.60
2023-05-11T16:50:43.434Z,1.80
2023-05-11T16:53:11.822Z,1.65
2023-05-11T16:55:40.327Z,1.75
2023-05-11T16:58:08.774Z,1.95
2023-05-11T17:00:38.553Z,2.17
2023-05-11T17:03:07.175Z,2.05
2023-05-11T17:05:35.644Z,2.10
2023-05-11T17:08:04.290Z,2.00
2023-05-11T17:10:32.757Z,2.03
2023-05-11T17:13:01.173Z,2.13
2023-05-11T17:15:29.594Z,2.10
2023-05-11T17:18:00.712Z,2.20
2023-05-11T17:20:29.223Z,2.17
2023-05-11T17:22:57.990Z,2.30
2023-05-11T17:25:26.465Z,2.20
2023-05-11T17:27:54.899Z,2.10
2023-05-11T17:30:32.883Z,2.10
2023-05-11T17:33:11.108Z,1.90
2023-05-11T17:35:39.764Z,2.00
2023-05-11T17:38:08.520Z,2.10
2023-05-11T17:40:36.946Z,1.83
2023-05-11T17:43:05.405Z,2.10
2023-05-11T17:45:34.038Z,2.00
2023-05-11T17:48:02.561Z,2.10
2023-05-11T17:50:33.330Z,2.50
2023-05-11T17:53:01.726Z,2.50
2023-05-11T17:55:30.165Z,2.10
2023-05-11T17:57:58.857Z,2.23
2023-05-11T18:00:28.261Z,2.47
2023-05-11T18:02:56.820Z,2.30
2023-05-11T18:05:33.281Z,2.27
2023-05-11T18:08:10.691Z,2.30
2023-05-11T18:10:39.101Z,2.20
2023-05-11T18:13:07.696Z,2.00
2023-05-11T18:15:36.204Z,2.20
2023-05-11T18:18:04.689Z,2.20
2023-05-11T18:20:33.124Z,2.20
2023-05-11T18:23:01.793Z,2.20
2023-05-11T18:25:32.021Z,2.20
2023-05-11T18:28:00.568Z,2.10
2023-05-11T18:30:29.496Z,2.20
2023-05-11T18:32:58.018Z,2.20
2023-05-11T18:35:26.489Z,2.30
2023-05-11T18:37:55.432Z,2.67
2023-05-11T18:40:24.182Z,2.50
2023-05-11T18:42:56.157Z,2.53
2023-05-11T18:45:25.094Z,2.83
2023-05-11T18:47:53.800Z,2.97
2023-05-11T18:50:22.410Z,2.67
2023-05-11T18:52:50.895Z,3.00
2023-05-11T18:55:19.451Z,3.00
2023-05-11T18:57:47.876Z,3.10
2023-05-11T19:00:18.433Z,2.80
2023-05-11T19:02:48.142Z,2.73
2023-05-11T19:05:16.816Z,3.60
2023-05-11T19:07:45.244Z,5.10
2023-05-11T19:10:13.779Z,5.30
2023-05-11T19:12:42.328Z,5.47
2023-05-11T19:15:11.302Z,5.60
2023-05-11T19:17:41.151Z,6.00
2023-05-11T19:20:11.753Z,5.60
2023-05-11T19:22:40.744Z,5.70
2023-05-11T19:25:10.286Z,5.50
2023-05-11T19:27:38.712Z,6.20
2023-05-11T19:30:09.421Z,5.43
2023-05-11T19:32:38.213Z,5.60
2023-05-11T19:35:08.951Z,5.70
2023-05-11T19:37:37.384Z,5.17
2023-05-11T19:40:43.107Z,5.20
2023-05-11T19:42:54.543Z,5.27
2023-05-11T19:45:23.073Z,5.40
2023-05-11T19:47:51.525Z,5.07
2023-05-11T19:50:24.375Z,5.10
2023-05-11T19:52:54.476Z,5.43
2023-05-11T19:55:23.165Z,4.30
2023-05-11T19:57:51.621Z,4.83
2023-05-11T20:00:22.920Z,4.37
2023-05-11T20:02:51.511Z,4.73
2023-05-11T20:05:21.401Z,4.90
2023-05-11T20:07:49.900Z,5.97
2023-05-11T20:10:18.569Z,4.20
2023-05-11T20:12:47.165Z,4.33
2023-05-11T20:15:15.602Z,4.30
2023-05-11T20:17:44.120Z,4.30
2023-05-11T20:20:13.126Z,3.97
2023-05-11T20:22:43.198Z,3.60
2023-05-11T20:25:18.419Z,4.23
2023-05-11T20:27:47.664Z,3.97
2023-05-11T20:30:16.393Z,3.40
2023-05-11T20:35:16.624Z,3.20
2023-05-11T20:37:47.352Z,3.00
2023-05-11T20:40:16.131Z,3.20
2023-05-11T20:42:44.569Z,2.93
2023-05-11T20:45:13.096Z,3.80
2023-05-11T20:47:41.536Z,3.67
2023-05-11T20:50:10.937Z,3.60
2023-05-11T20:52:39.589Z,3.63
2023-05-11T20:55:09.965Z,3.80
2023-05-11T20:57:38.440Z,3.30
2023-05-11T21:00:08.036Z,3.20
2023-05-11T21:02:36.637Z,3.10
2023-05-11T21:05:05.156Z,3.20
2023-05-11T21:07:33.675Z,2.97
2023-05-11T21:10:02.757Z,2.80
2023-05-11T21:12:32.756Z,2.80
2023-05-11T21:15:01.294Z,2.73
2023-05-11T21:17:29.765Z,2.73
2023-05-11T21:19:58.199Z,2.90
2023-05-11T21:22:26.735Z,2.90
2023-05-11T21:24:55.133Z,2.90
2023-05-11T21:27:23.538Z,3.27
2023-05-11T21:29:53.352Z,3.47
2023-05-11T21:32:22.123Z,3.17
2023-05-11T21:34:50.564Z,3.60
2023-05-11T21:37:20.970Z,3.10
2023-05-11T21:39:49.440Z,3.67
2023-05-11T21:42:17.939Z,3.10
2023-05-11T21:44:46.354Z,3.37
2023-05-11T21:47:16.178Z,3.47
2023-05-11T21:49:44.662Z,3.27
2023-05-11T21:52:13.171Z,3.10
2023-05-11T21:54:41.594Z,2.60
2023-05-11T21:57:10.362Z,2.93
2023-05-11T21:59:38.988Z,2.87
2023-05-11T22:02:07.538Z,2.50
2023-05-11T22:04:37.528Z,2.73
2023-05-11T22:07:06.473Z,2.67
2023-05-11T22:09:34.909Z,2.60
2023-05-11T22:12:03.755Z,2.43
2023-05-11T22:14:32.243Z,2.60
2023-05-11T22:17:00.768Z,3.10
2023-05-11T22:19:29.962Z,2.47
2023-05-11T22:21:59.783Z,2.57
2023-05-11T22:24:28.236Z,4.30
2023-05-11T22:26:56.658Z,2.30
2023-05-11T22:29:25.376Z,2.57
2023-05-11T22:31:53.833Z,2.50
2023-05-11T22:34:22.370Z,2.80
2023-05-11T22:36:50.780Z,2.47
2023-05-11T22:39:21.097Z,2.57
2023-05-11T22:41:49.491Z,2.60
2023-05-11T22:44:17.922Z,2.70
2023-05-11T22:46:46.322Z,2.47
2023-05-11T22:49:14.787Z,2.53
2023-05-11T22:51:43.598Z,3.00
2023-05-11T22:54:13.235Z,2.80
2023-05-11T22:56:43.111Z,2.60
2023-05-11T22:59:12.522Z,2.30
2023-05-11T23:01:40.964Z,2.23
2023-05-11T23:04:09.681Z,2.30
2023-05-11T23:06:38.156Z,2.43
2023-05-11T23:09:06.577Z,2.60
2023-05-11T23:11:34.976Z,2.37
2023-05-11T23:14:04.815Z,2.67
2023-05-11T23:16:33.209Z,2.70
2023-05-11T23:19:02.529Z,2.30
2023-05-11T23:21:31.043Z,2.40
2023-05-11T23:23:59.484Z,2.57
2023-05-11T23:26:27.949Z,2.63
2023-05-11T23:28:56.415Z,2.50
2023-05-11T23:31:27.878Z,2.57
2023-05-11T23:33:56.359Z,2.40
2023-05-11T23:36:25.076Z,2.40
2023-05-11T23:38:53.524Z,2.10
2023-05-11T23:41:22.364Z,2.53
2023-05-11T23:43:50.843Z,2.40
2023-05-11T23:46:19.597Z,2.30
2023-05-11T23:48:49.388Z,2.27
2023-05-11T23:51:17.881Z,2.33
2023-05-11T23:53:46.662Z,2.20
2023-05-11T23:56:15.092Z,2.40
2023-05-11T23:58:45.725Z,2.50
